Time;durP1;ratioP1;P1;durP2;ratioP2;P2;SDS_P1;SDS_P2;PMS_P1;PMS_P2;Temp;Humidity;BMP_temperature;BMP_pressure;BME280_temperature;BME280_humidity;BME280_pressure;Samples;Min_cycle;Max_cycle;Signal;HPM_P1;HPM_P2
2020/12/16 00:02:09;;;;;;;14.17;9.47;;;1.10;99.90;;;;;;4872247;28;20185;-81
2020/12/16 00:04:33;;;;;;;16.33;9.47;;;1.50;99.90;;;;;;4872117;28;20197;-78
2020/12/16 00:06:56;;;;;;;12.20;8.37;;;;;;;;;;4874114;28;20185;-79
2020/12/16 00:09:22;;;;;;;15.53;10.20;;;;;;;;;;4874577;28;20646;-82
2020/12/16 00:11:44;;;;;;;14.70;9.57;;;;;;;;;;4873590;28;20719;-79
2020/12/16 00:14:06;;;;;;;15.87;10.27;;;1.70;98.70;;;;;;4873556;28;21013;-81
2020/12/16 00:16:36;;;;;;;14.97;9.63;;;1.70;98.20;;;;;;4874830;28;20227;-81
2020/12/16 00:18:59;;;;;;;15.73;9.70;;;1.80;96.90;;;;;;4856699;28;20622;-78
2020/12/16 00:21:21;;;;;;;14.93;9.23;;;1.70;99.70;;;;;;4875469;28;20242;-80
2020/12/16 00:23:43;;;;;;;14.40;9.10;;;1.70;95.80;;;;;;4874978;28;21018;-82
2020/12/16 00:26:06;;;;;;;11.93;8.13;;;;;;;;;;4855462;28;20221;-80
2020/12/16 00:28:28;;;;;;;13.47;8.87;;;1.80;95.60;;;;;;4875651;28;20699;-81
2020/12/16 00:30:50;;;;;;;12.17;8.57;;;2.50;95.70;;;;;;4875105;28;20239;-78
2020/12/16 00:33:19;;;;;;;14.77;9.60;;;1.90;93.40;;;;;;4875409;28;20188;-78
2020/12/16 00:35:42;;;;;;;10.90;7.73;;;1.90;91.90;;;;;;4874771;28;20594;-80
2020/12/16 00:38:07;;;;;;;11.23;7.60;;;;;;;;;;4874966;28;20189;-79
2020/12/16 00:40:30;;;;;;;12.33;8.13;;;;;;;;;;4875686;28;20573;-80
2020/12/16 00:42:52;;;;;;;10.50;8.57;;;;;;;;;;4873635;28;20251;-80
2020/12/16 00:45:15;;;;;;;10.80;8.03;;;;;;;;;;4874476;28;20299;-80
2020/12/16 00:47:37;;;;;;;12.33;8.10;;;2.00;96.30;;;;;;4857096;28;20225;-83
2020/12/16 00:50:01;;;;;;;11.30;7.77;;;;;;;;;;4857331;28;20691;-79
2020/12/16 00:52:27;;;;;;;10.00;7.13;;;2.00;80.20;;;;;;4857542;28;20190;-79
2020/12/16 00:54:50;;;;;;;13.77;7.87;;;;;;;;;;4857197;28;20214;-79
2020/12/16 00:57:12;;;;;;;11.40;7.93;;;;;;;;;;4874156;28;20637;-80
2020/12/16 00:59:37;;;;;;;12.73;8.30;;;;;;;;;;4873365;28;20189;-79
2020/12/16 01:02:05;;;;;;;11.47;8.00;;;1.90;75.80;;;;;;4854712;28;20189;-78
2020/12/16 01:04:28;;;;;;;10.97;7.77;;;1.90;90.10;;;;;;4868253;28;20182;-80
2020/12/16 01:06:51;;;;;;;10.40;8.00;;;;;;;;;;4856634;28;20244;-80
2020/12/16 01:09:15;;;;;;;8.53;6.53;;;1.90;75.60;;;;;;4857101;28;20225;-80
2020/12/16 01:11:37;;;;;;;9.13;7.40;;;;;;;;;;4874004;28;20312;-81
2020/12/16 01:14:02;;;;;;;9.97;7.23;;;;;;;;;;4873853;28;20690;-80
2020/12/16 01:16:25;;;;;;;10.93;7.63;;;;;;;;;;4856258;28;20240;-81
2020/12/16 01:18:47;;;;;;;9.60;7.20;;;;;;;;;;4872838;28;20267;-81
2020/12/16 01:21:15;;;;;;;9.77;7.50;;;1.90;72.60;;;;;;4873016;28;20205;-82
2020/12/16 01:23:41;;;;;;;10.37;7.73;;;3.20;78.10;;;;;;4856579;28;20255;-80
2020/12/16 01:26:05;;;;;;;8.93;6.20;;;1.90;78.30;;;;;;4856907;28;20610;-79
2020/12/16 01:28:31;;;;;;;6.57;5.10;;;;;;;;;;4853646;28;20210;-78
2020/12/16 01:30:56;;;;;;;8.50;6.33;;;;;;;;;;4856650;28;20865;-79
2020/12/16 01:33:21;;;;;;;9.23;6.50;;;1.90;68.70;;;;;;4874625;28;20549;-80
2020/12/16 01:35:54;;;;;;;7.90;5.97;;;;;;;;;;4840140;28;20230;-79
2020/12/16 01:38:18;;;;;;;10.90;8.17;;;2.10;67.70;;;;;;4855710;28;20194;-82
2020/12/16 01:40:46;;;;;;;8.60;6.87;;;2.10;68.00;;;;;;4872825;28;20384;-80
2020/12/16 01:43:10;;;;;;;8.20;7.07;;;3.00;67.40;;;;;;4856993;28;20194;-79
2020/12/16 01:45:36;;;;;;;7.50;6.27;;;4.70;69.70;;;;;;4872346;28;20251;-79
2020/12/16 01:48:00;;;;;;;10.20;7.17;;;2.10;66.50;;;;;;4873904;28;20695;-81
2020/12/16 01:50:25;;;;;;;9.40;6.93;;;2.20;65.00;;;;;;4855890;28;20230;-80
2020/12/16 01:52:54;;;;;;;9.23;6.87;;;3.10;66.20;;;;;;4856841;28;20652;-81
2020/12/16 01:55:32;;;;;;;8.67;6.17;;;2.10;74.00;;;;;;4869481;28;20603;-79
2020/12/16 01:58:12;;;;;;;10.23;6.83;;;2.10;60.50;;;;;;4856073;28;20206;-79
2020/12/16 02:00:35;;;;;;;9.30;7.70;;;;;;;;;;4847859;28;20631;-80
2020/12/16 02:03:03;;;;;;;11.07;8.10;;;2.20;55.80;;;;;;4873254;28;20691;-76
2020/12/16 02:05:45;;;;;;;10.73;8.13;;;2.20;53.20;;;;;;4850431;28;20236;-76
2020/12/16 02:08:16;;;;;;;7.80;7.00;;;2.20;52.50;;;;;;4874687;28;20204;-80
2020/12/16 02:10:42;;;;;;;10.53;8.83;;;;;;;;;;4877347;28;20182;-78
2020/12/16 02:13:06;;;;;;;7.93;6.63;;;2.20;51.60;;;;;;4843353;28;20237;-78
2020/12/16 02:15:32;;;;;;;11.47;9.07;;;2.20;48.60;;;;;;4859356;28;20256;-79
2020/12/16 02:17:55;;;;;;;11.43;8.80;;;;;;;;;;4878427;28;20590;-81
2020/12/16 02:20:20;;;;;;;10.00;8.53;;;2.20;49.60;;;;;;4874995;28;20593;-83
2020/12/16 02:22:51;;;;;;;16.70;9.57;;;2.20;50.10;;;;;;4859701;28;20739;-80
2020/12/16 02:25:17;;;;;;;10.20;8.17;;;2.20;50.60;;;;;;4859096;28;20251;-82
2020/12/16 02:27:51;;;;;;;11.00;8.27;;;2.20;66.00;;;;;;4876590;28;20201;-78
2020/12/16 02:30:21;;;;;;;9.77;7.67;;;;;;;;;;4858469;28;20778;-80
2020/12/16 02:33:01;;;;;;;10.33;8.13;;;;;;;;;;4878886;28;20174;-82
2020/12/16 02:35:30;;;;;;;11.97;7.80;;;;;;;;;;4841467;28;20203;-79
2020/12/16 02:38:02;;;;;;;8.87;6.80;;;2.10;60.40;;;;;;4876723;28;20623;-81
2020/12/16 02:40:31;;;;;;;9.00;6.90;;;2.10;53.50;;;;;;4857279;28;20201;-81
2020/12/16 02:42:53;;;;;;;9.03;6.73;;;2.10;69.80;;;;;;4859687;28;20202;-79
2020/12/16 02:45:16;;;;;;;11.00;8.07;;;;;;;;;;4866776;28;20649;-78
2020/12/16 02:47:51;;;;;;;9.23;7.50;;;1.70;69.80;;;;;;4856970;28;20650;-80
2020/12/16 02:50:18;;;;;;;9.10;6.73;;;;;;;;;;4857980;28;20210;-81
2020/12/16 02:52:42;;;;;;;9.00;6.80;;;;;;;;;;4839471;28;20604;-78
2020/12/16 02:55:09;;;;;;;10.77;7.60;;;;;;;;;;4840418;28;20268;-79
2020/12/16 02:57:42;;;;;;;10.70;7.97;;;2.30;47.80;;;;;;4857659;28;20178;-79
2020/12/16 03:00:06;;;;;;;9.70;8.10;;;2.20;60.80;;;;;;4838077;28;20194;-79
2020/12/16 03:02:54;;;;;;;11.13;8.37;;;2.30;60.80;;;;;;4854042;28;20236;-79
2020/12/16 03:05:47;;;;;;;12.93;8.70;;;;;;;;;;4840134;28;20214;-79
2020/12/16 03:08:23;;;;;;;10.23;7.80;;;;;;;;;;4841288;28;20679;-79
2020/12/16 03:10:55;;;;;;;12.17;8.07;;;2.30;56.40;;;;;;4839658;28;20219;-79
2020/12/16 03:13:18;;;;;;;9.80;8.17;;;2.40;42.30;;;;;;4854554;28;20197;-81
2020/12/16 03:15:41;;;;;;;9.20;6.10;;;;;;;;;;4839512;28;20198;-82
2020/12/16 03:18:03;;;;;;;10.23;7.00;;;2.40;46.50;;;;;;4840343;28;20987;-79
2020/12/16 03:20:26;;;;;;;11.17;6.27;;;;;;;;;;4839314;28;20187;-79
2020/12/16 03:22:48;;;;;;;9.83;6.47;;;3.10;52.70;;;;;;4839429;28;20230;-78
2020/12/16 03:25:29;;;;;;;8.43;7.20;;;2.20;52.40;;;;;;4850852;28;20182;-80
2020/12/16 03:28:11;;;;;;;9.27;7.00;;;;;;;;;;4857427;28;20602;-78
2020/12/16 03:31:11;;;;;;;9.27;7.07;;;;;;;;;;4836331;28;20218;-83
2020/12/16 03:33:59;;;;;;;7.77;6.00;;;;;;;;;;4839104;28;20191;-80
2020/12/16 03:36:30;;;;;;;8.60;6.40;;;2.30;36.00;;;;;;4853236;28;20268;-78
2020/12/16 03:39:00;;;;;;;8.50;5.93;;;2.40;37.90;;;;;;4839183;28;20261;-78
2020/12/16 03:41:26;;;;;;;7.40;5.67;;;2.30;42.50;;;;;;4855977;28;20202;-81
2020/12/16 03:43:52;;;;;;;8.40;6.20;;;2.30;38.90;;;;;;4835408;28;20568;-79
2020/12/16 03:46:17;;;;;;;8.60;7.13;;;3.10;40.00;;;;;;4821548;28;20692;-78
2020/12/16 03:48:41;;;;;;;8.77;6.60;;;2.40;37.60;;;;;;4831891;28;20556;-79
2020/12/16 03:51:07;;;;;;;6.63;5.90;;;3.60;39.50;;;;;;4845012;28;20266;-80
2020/12/16 03:53:29;;;;;;;9.80;6.70;;;2.30;42.40;;;;;;4843710;28;20223;-82
2020/12/16 03:56:21;;;;;;;9.50;7.20;;;2.30;38.90;;;;;;4794202;28;20244;-79
2020/12/16 03:59:09;;;;;;;9.10;7.70;;;2.30;44.00;;;;;;4847099;28;20206;-79
2020/12/16 04:01:41;;;;;;;10.77;7.70;;;3.50;41.40;;;;;;4847988;28;20610;-85
2020/12/16 04:04:04;;;;;;;8.43;7.23;;;2.40;42.10;;;;;;4848056;28;20249;-80
2020/12/16 04:06:31;;;;;;;7.13;6.43;;;2.30;42.20;;;;;;4844060;28;20235;-79
2020/12/16 04:08:54;;;;;;;8.83;6.57;;;2.70;43.60;;;;;;4833808;28;20609;-80
2020/12/16 04:11:19;;;;;;;6.67;5.73;;;4.30;40.90;;;;;;4868392;28;20261;-79
2020/12/16 04:13:48;;;;;;;6.83;5.60;;;2.40;38.30;;;;;;4843030;28;20203;-81
2020/12/16 04:16:12;;;;;;;6.23;5.37;;;2.70;34.10;;;;;;4846623;28;20230;-78
2020/12/16 04:18:36;;;;;;;6.37;5.20;;;3.40;34.20;;;;;;4849943;28;20665;-79
2020/12/16 04:20:58;;;;;;;6.70;5.70;;;2.60;31.50;;;;;;4867962;28;20219;-78
2020/12/16 04:23:21;;;;;;;6.80;5.80;;;2.50;27.10;;;;;;4847520;28;20214;-78
2020/12/16 04:26:03;;;;;;;8.47;7.60;;;3.60;27.00;;;;;;4841381;28;20202;-80
2020/12/16 04:28:27;;;;;;;7.60;6.80;;;2.50;25.10;;;;;;4852823;28;20199;-80
2020/12/16 04:30:49;;;;;;;8.23;5.90;;;2.40;30.00;;;;;;4848922;28;20486;-79
2020/12/16 04:33:11;;;;;;;6.53;4.97;;;2.50;25.80;;;;;;4842260;28;20199;-78
2020/12/16 04:35:38;;;;;;;6.67;5.97;;;2.40;26.10;;;;;;4848101;28;20220;-79
2020/12/16 04:38:00;;;;;;;6.30;5.60;;;2.40;26.30;;;;;;4849228;28;20202;-79
2020/12/16 04:40:27;;;;;;;8.37;6.57;;;2.30;27.40;;;;;;4848803;28;20340;-80
2020/12/16 04:43:05;;;;;;;7.03;5.27;;;2.20;27.90;;;;;;4846156;28;20202;-81
2020/12/16 04:45:29;;;;;;;8.00;5.47;;;2.20;45.60;;;;;;4844165;28;20198;-77
2020/12/16 04:47:52;;;;;;;7.17;5.70;;;2.20;48.60;;;;;;4849003;28;20309;-78
2020/12/16 04:50:16;;;;;;;6.93;5.43;;;2.10;47.60;;;;;;4864673;28;20601;-80
2020/12/16 04:52:48;;;;;;;6.80;5.30;;;2.20;30.50;;;;;;4848666;28;20240;-78
2020/12/16 04:55:14;;;;;;;6.40;5.60;;;2.00;30.00;;;;;;4846505;28;20253;-78
2020/12/16 04:57:55;;;;;;;5.70;4.43;;;2.00;31.20;;;;;;4852461;28;20654;-78
2020/12/16 05:00:22;;;;;;;6.30;5.20;;;2.10;31.10;;;;;;4840840;28;20224;-78
2020/12/16 05:03:01;;;;;;;6.07;5.20;;;2.10;30.90;;;;;;4852457;28;20190;-77
2020/12/16 05:05:42;;;;;;;6.53;5.13;;;2.10;47.60;;;;;;4859237;28;20240;-77
2020/12/16 05:08:15;;;;;;;7.30;6.27;;;2.00;32.70;;;;;;4871505;28;20242;-77
2020/12/16 05:10:39;;;;;;;8.50;6.80;;;2.00;34.20;;;;;;4858791;28;20202;-78
2020/12/16 05:13:02;;;;;;;9.47;7.60;;;2.00;35.10;;;;;;4862931;28;20655;-77
2020/12/16 05:15:25;;;;;;;9.37;6.60;;;1.90;52.80;;;;;;4856866;28;20729;-79
2020/12/16 05:17:47;;;;;;;8.53;6.77;;;;;;;;;;4846232;28;20739;-80
2020/12/16 05:20:09;;;;;;;8.90;6.83;;;2.00;55.30;;;;;;4864461;28;20660;-79
2020/12/16 05:22:31;;;;;;;8.80;7.40;;;;;;;;;;4872440;28;20213;-78
2020/12/16 05:25:09;;;;;;;10.00;8.23;;;1.60;40.90;;;;;;4872488;28;20185;-78
2020/12/16 05:27:33;;;;;;;9.60;7.47;;;1.50;43.20;;;;;;4864253;28;20605;-80
2020/12/16 05:30:04;;;;;;;9.83;8.73;;;1.50;49.70;;;;;;4871495;28;20729;-79
2020/12/16 05:32:30;;;;;;;9.30;7.63;;;1.60;53.60;;;;;;4864580;28;20186;-78
2020/12/16 05:34:52;;;;;;;9.47;7.63;;;1.50;53.60;;;;;;4841902;28;20193;-77
2020/12/16 05:37:33;;;;;;;10.13;7.00;;;1.50;53.90;;;;;;4859851;28;20190;-83
2020/12/16 05:39:57;;;;;;;9.47;6.40;;;1.40;55.60;;;;;;4863844;28;20332;-79
2020/12/16 05:42:20;;;;;;;6.73;5.80;;;1.50;77.80;;;;;;4868731;28;20713;-80
2020/12/16 05:44:48;;;;;;;7.77;6.03;;;;;;;;;;4871775;28;20242;-80
2020/12/16 05:47:10;;;;;;;7.63;5.77;;;;;;;;;;4870095;28;20225;-78
2020/12/16 05:49:33;;;;;;;8.83;7.03;;;;;;;;;;4877563;28;20675;-79
2020/12/16 05:51:56;;;;;;;10.70;6.87;;;1.30;59.00;;;;;;4878641;28;20637;-78
2020/12/16 05:54:18;;;;;;;8.63;6.97;;;;;;;;;;4878204;28;20189;-78
2020/12/16 05:56:40;;;;;;;9.70;6.53;;;;;;;;;;4878343;28;20231;-79
2020/12/16 05:59:08;;;;;;;6.27;5.57;;;1.20;63.80;;;;;;4878133;28;20189;-80
2020/12/16 06:01:31;;;;;;;7.87;5.53;;;-1.60;62.50;;;;;;4873985;28;20275;-79
2020/12/16 06:03:53;;;;;;;8.13;5.80;;;1.20;65.10;;;;;;4878836;28;20247;-78
2020/12/16 06:06:17;;;;;;;10.37;7.87;;;2.20;70.90;;;;;;4878449;28;20204;-81
2020/12/16 06:08:44;;;;;;;11.27;9.10;;;1.20;70.60;;;;;;4878333;28;20186;-79
2020/12/16 06:11:23;;;;;;;9.80;7.70;;;1.20;70.10;;;;;;4876383;28;20650;-78
2020/12/16 06:13:46;;;;;;;8.37;6.27;;;1.00;88.00;;;;;;4878180;28;20234;-83
2020/12/16 06:16:15;;;;;;;7.37;5.53;;;1.20;67.50;;;;;;4878431;28;20189;-78
2020/12/16 06:18:39;;;;;;;7.87;5.30;;;1.30;67.60;;;;;;4871781;28;20667;-79
2020/12/16 06:21:02;;;;;;;7.07;4.93;;;;;;;;;;4877625;28;20606;-78
2020/12/16 06:23:33;;;;;;;8.43;5.70;;;1.20;67.30;;;;;;4877789;28;20672;-78
2020/12/16 06:25:57;;;;;;;9.63;5.97;;;1.20;76.90;;;;;;4878120;28;20181;-79
2020/12/16 06:28:20;;;;;;;10.67;7.17;;;2.30;70.80;;;;;;4877769;28;20603;-79
2020/12/16 06:30:55;;;;;;;9.47;7.40;;;3.70;74.10;;;;;;4877096;28;20702;-81
2020/12/16 06:33:27;;;;;;;8.37;6.70;;;2.00;73.70;;;;;;4877084;28;20177;-78
2020/12/16 06:35:49;;;;;;;11.07;7.50;;;4.10;76.00;;;;;;4877412;28;20621;-79
2020/12/16 06:38:20;;;;;;;10.27;7.57;;;2.90;75.80;;;;;;4877539;28;20189;-77
2020/12/16 06:40:48;;;;;;;7.90;6.10;;;1.30;71.30;;;;;;4877146;28;20181;-80
2020/12/16 06:43:35;;;;;;;6.47;5.43;;;1.20;68.70;;;;;;4876095;28;20632;-78
2020/12/16 06:45:57;;;;;;;10.30;6.33;;;1.20;87.10;;;;;;4877389;28;20182;-78
2020/12/16 06:48:33;;;;;;;8.33;6.20;;;1.20;66.50;;;;;;4877321;28;20225;-78
2020/12/16 06:51:17;;;;;;;12.17;6.90;;;1.20;66.90;;;;;;4877142;28;21224;-77
2020/12/16 06:53:39;;;;;;;10.37;7.23;;;;;;;;;;4871888;28;20993;-77
2020/12/16 06:56:08;;;;;;;8.50;6.27;;;1.10;68.20;;;;;;4876449;28;20239;-81
2020/12/16 06:58:36;;;;;;;9.53;6.70;;;1.20;69.70;;;;;;4876504;28;20990;-77
2020/12/16 07:01:12;;;;;;;10.70;7.70;;;1.30;70.00;;;;;;4875363;28;20606;-79
2020/12/16 07:03:35;;;;;;;12.03;9.10;;;1.40;74.80;;;;;;4874597;28;20206;-79
2020/12/16 07:06:00;;;;;;;13.13;10.10;;;;;;;;;;4877552;28;20603;-79
2020/12/16 07:08:28;;;;;;;11.50;8.50;;;2.10;81.80;;;;;;4877149;28;20197;-80
2020/12/16 07:10:50;;;;;;;9.27;7.33;;;;;;;;;;4877334;28;20983;-79
2020/12/16 07:13:26;;;;;;;9.43;7.37;;;2.30;44.30;;;;;;4876678;28;20177;-78
2020/12/16 07:15:52;;;;;;;9.87;7.33;;;2.20;33.50;;;;;;4872951;28;20174;-78
2020/12/16 07:18:29;;;;;;;9.60;7.17;;;2.20;31.90;;;;;;4877108;28;20193;-79
2020/12/16 07:21:16;;;;;;;11.40;7.83;;;2.30;34.70;;;;;;4859045;28;20193;-78
2020/12/16 07:23:39;;;;;;;12.03;9.07;;;2.50;26.10;;;;;;4866165;28;20735;-79
2020/12/16 07:26:02;;;;;;;11.47;8.73;;;2.70;19.90;;;;;;4876536;28;20614;-78
2020/12/16 07:28:25;;;;;;;10.20;7.80;;;;;;;;;;4877227;28;20189;-79
2020/12/16 07:30:50;;;;;;;12.23;7.13;;;3.50;4.50;;;;;;4875844;28;20270;-78
2020/12/16 07:33:14;;;;;;;10.13;7.13;;;3.80;1.00;;;;;;4876521;28;20186;-79
2020/12/16 07:35:47;;;;;;;7.93;6.37;;;4.00;1.00;;;;;;4875375;28;20442;-79
2020/12/16 07:38:12;;;;;;;9.17;6.77;;;3.80;1.00;;;;;;4857220;28;20186;-78
2020/12/16 07:40:34;;;;;;;10.97;6.43;;;;;;;;;;4876112;28;20675;-79
2020/12/16 07:42:57;;;;;;;10.53;8.10;;;;;;;;;;4876452;28;20235;-82
2020/12/16 07:45:19;;;;;;;9.37;7.37;;;;;;;;;;4874863;28;20243;-79
2020/12/16 07:47:43;;;;;;;9.27;7.83;;;4.10;1.00;;;;;;4876130;28;20225;-80
2020/12/16 07:50:10;;;;;;;10.93;7.13;;;3.30;1.00;;;;;;4875643;28;20205;-79
2020/12/16 07:52:32;;;;;;;8.33;6.47;;;3.30;1.00;;;;;;4876790;28;20527;-77
2020/12/16 07:54:58;;;;;;;9.50;6.70;;;3.10;1.00;;;;;;4877306;28;20247;-78
2020/12/16 07:57:27;;;;;;;10.00;7.00;;;2.90;1.00;;;;;;4876576;28;20648;-77
2020/12/16 07:59:52;;;;;;;9.10;6.70;;;2.80;1.00;;;;;;4876755;28;20186;-78
2020/12/16 08:02:17;;;;;;;9.83;6.50;;;2.80;1.00;;;;;;4874837;28;20185;-77
2020/12/16 08:04:54;;;;;;;7.80;6.23;;;3.20;1.00;;;;;;4876838;28;20193;-78
2020/12/16 08:07:17;;;;;;;7.83;6.17;;;2.70;1.00;;;;;;4876141;28;20228;-78
2020/12/16 08:09:58;;;;;;;7.77;5.80;;;2.70;1.00;;;;;;4857907;28;20233;-79
2020/12/16 08:12:23;;;;;;;7.80;6.20;;;2.90;1.00;;;;;;4876821;28;20234;-77
2020/12/16 08:14:47;;;;;;;7.57;6.23;;;2.90;1.00;;;;;;4876139;28;20185;-79
2020/12/16 08:17:14;;;;;;;8.37;6.07;;;2.90;1.00;;;;;;4837669;28;20249;-79
2020/12/16 08:19:37;;;;;;;9.47;6.93;;;2.90;1.00;;;;;;4876162;28;20583;-77
2020/12/16 08:22:09;;;;;;;7.80;6.20;;;3.00;1.00;;;;;;4875181;28;20679;-78
2020/12/16 08:24:33;;;;;;;10.03;6.40;;;3.00;1.00;;;;;;4876858;28;20220;-80
2020/12/16 08:26:56;;;;;;;9.17;6.43;;;3.10;1.00;;;;;;4875308;28;20185;-80
2020/12/16 08:29:18;;;;;;;9.20;6.73;;;3.10;1.00;;;;;;4828776;28;20643;-78
2020/12/16 08:31:41;;;;;;;11.37;7.03;;;3.20;1.00;;;;;;4875156;28;20213;-83
2020/12/16 08:34:07;;;;;;;13.57;7.30;;;3.20;1.00;;;;;;4875062;28;20193;-78
2020/12/16 08:36:35;;;;;;;9.67;6.97;;;3.40;1.00;;;;;;4852646;28;20248;-79
2020/12/16 08:39:05;;;;;;;13.40;6.73;;;3.50;1.00;;;;;;4874203;28;20193;-80
2020/12/16 08:41:29;;;;;;;12.57;7.43;;;3.40;1.00;;;;;;4869712;28;20177;-77
2020/12/16 08:43:53;;;;;;;9.83;6.80;;;3.50;1.00;;;;;;4843640;28;20280;-77
2020/12/16 08:46:17;;;;;;;8.97;6.27;;;3.50;1.00;;;;;;4874211;28;20193;-77
2020/12/16 08:48:43;;;;;;;9.57;6.57;;;3.70;1.00;;;;;;4867571;28;20217;-77
2020/12/16 08:51:09;;;;;;;8.43;5.80;;;4.00;1.00;;;;;;4872311;28;20205;-79
2020/12/16 08:53:49;;;;;;;10.50;6.50;;;3.70;1.00;;;;;;4875488;28;20239;-76
2020/12/16 08:56:30;;;;;;;10.27;5.87;;;3.70;1.00;;;;;;4875117;28;20177;-77
2020/12/16 08:59:11;;;;;;;8.23;5.60;;;4.10;1.00;;;;;;4873684;28;20689;-78
2020/12/16 09:01:34;;;;;;;11.47;7.87;;;4.00;1.00;;;;;;4865535;28;20304;-77
2020/12/16 09:03:58;;;;;;;8.60;5.80;;;4.00;1.00;;;;;;4874350;28;20186;-78
2020/12/16 09:06:20;;;;;;;5.87;4.83;;;4.00;1.00;;;;;;4874796;28;20189;-76
2020/12/16 09:08:42;;;;;;;6.87;4.47;;;4.10;1.00;;;;;;4856846;28;20244;-78
2020/12/16 09:11:07;;;;;;;6.70;4.23;;;4.20;1.00;;;;;;4875515;28;20554;-77
2020/12/16 09:13:31;;;;;;;5.67;4.13;;;4.30;1.00;;;;;;4857053;28;20718;-78
2020/12/16 09:15:54;;;;;;;5.47;3.97;;;4.50;1.00;;;;;;4856119;28;20202;-79
2020/12/16 09:18:18;;;;;;;6.67;4.83;;;4.60;1.00;;;;;;4873201;28;20239;-80
2020/12/16 09:20:47;;;;;;;7.83;5.40;;;4.70;1.00;;;;;;4871690;28;20591;-78
2020/12/16 09:23:09;;;;;;;8.80;4.90;;;4.80;1.00;;;;;;4873753;28;20250;-76
2020/12/16 09:25:32;;;;;;;6.63;4.37;;;5.10;1.00;;;;;;4874561;28;20608;-77
2020/12/16 09:27:57;;;;;;;5.23;4.47;;;5.10;1.00;;;;;;4875289;28;20189;-78
2020/12/16 09:30:32;;;;;;;7.50;4.07;;;5.60;1.00;;;;;;4873750;28;20603;-77
2020/12/16 09:33:10;;;;;;;5.60;4.13;;;6.40;99.90;;;;;;4872999;28;20642;-77
2020/12/16 09:35:35;;;;;;;5.33;4.07;;;7.80;1.00;;;;;;4856066;28;20174;-77
2020/12/16 09:37:57;;;;;;;4.03;3.50;;;9.60;99.90;;;;;;4856085;28;20656;-78
2020/12/16 09:40:25;;;;;;;5.67;3.13;;;11.00;1.00;;;;;;4872939;28;20254;-77
2020/12/16 09:42:55;;;;;;;4.30;3.40;;;11.60;1.00;;;;;;4854035;28;20178;-76
2020/12/16 09:45:20;;;;;;;3.37;2.77;;;12.40;1.00;;;;;;4873434;28;20212;-78
2020/12/16 09:47:43;;;;;;;3.30;3.00;;;12.90;1.00;;;;;;4872943;28;20221;-77
2020/12/16 09:50:07;;;;;;;2.50;2.27;;;13.60;1.00;;;;;;4873096;28;20190;-77
2020/12/16 09:52:34;;;;;;;2.63;2.17;;;13.90;1.00;;;;;;4840513;28;20218;-77
2020/12/16 09:54:57;;;;;;;2.60;2.40;;;13.50;1.00;;;;;;4874489;28;20231;-77
2020/12/16 09:57:21;;;;;;;3.67;2.30;;;12.70;1.00;;;;;;4855872;28;20208;-78
2020/12/16 09:59:44;;;;;;;2.87;2.63;;;11.60;1.00;;;;;;4872669;28;20212;-79
2020/12/16 10:02:06;;;;;;;2.80;2.60;;;10.70;1.00;;;;;;4851223;28;20194;-78
2020/12/16 10:04:29;;;;;;;2.70;2.47;;;9.90;1.00;;;;;;4875182;28;20258;-77
2020/12/16 10:06:52;;;;;;;3.77;2.60;;;9.30;1.00;;;;;;4856135;28;20639;-77
2020/12/16 10:09:15;;;;;;;4.10;3.23;;;8.80;1.00;;;;;;4873200;28;20231;-78
2020/12/16 10:11:38;;;;;;;3.70;3.17;;;8.40;1.00;;;;;;4873429;28;20209;-78
2020/12/16 10:14:09;;;;;;;3.90;3.20;;;7.70;1.00;;;;;;4873820;28;20552;-80
2020/12/16 10:16:33;;;;;;;3.97;3.30;;;7.70;1.00;;;;;;4855369;28;20182;-79
2020/12/16 10:18:55;;;;;;;3.60;3.30;;;7.50;3.50;;;;;;4858473;28;20235;-77
2020/12/16 10:21:17;;;;;;;2.77;2.57;;;7.30;99.90;;;;;;4854187;28;20194;-79
2020/12/16 10:23:41;;;;;;;2.83;2.30;;;7.20;99.90;;;;;;4836765;28;20410;-77
2020/12/16 10:26:08;;;;;;;3.27;2.70;;;7.10;99.90;;;;;;4855564;28;20190;-78
2020/12/16 10:28:30;;;;;;;3.13;2.70;;;7.00;99.90;;;;;;4822792;28;20199;-76
2020/12/16 10:30:53;;;;;;;3.77;3.37;;;7.20;99.90;;;;;;4857208;28;20288;-77
2020/12/16 10:33:15;;;;;;;3.73;3.27;;;7.20;99.90;;;;;;4841235;28;20722;-78
2020/12/16 10:35:37;;;;;;;4.00;3.53;;;7.40;99.90;;;;;;4858725;28;20714;-76
2020/12/16 10:37:59;;;;;;;4.07;3.27;;;7.50;99.90;;;;;;4841704;28;20843;-75
2020/12/16 10:40:23;;;;;;;3.47;2.93;;;7.70;99.90;;;;;;4858149;28;20648;-80
2020/12/16 10:42:45;;;;;;;3.83;3.30;;;7.90;26.20;;;;;;4878339;28;20246;-79
2020/12/16 10:45:07;;;;;;;5.87;3.53;;;8.10;1.00;;;;;;4897238;28;20181;-78
2020/12/16 10:47:30;;;;;;;3.73;3.13;;;8.40;1.00;;;;;;4897587;28;20610;-82
2020/12/16 10:49:52;;;;;;;4.40;3.13;;;8.70;1.00;;;;;;4896710;28;20188;-77
2020/12/16 10:52:15;;;;;;;3.50;2.97;;;9.00;1.00;;;;;;4878919;28;20279;-75
2020/12/16 10:54:39;;;;;;;4.00;3.00;;;9.20;1.00;;;;;;4877793;28;20247;-76
2020/12/16 10:57:07;;;;;;;3.70;3.07;;;9.40;1.00;;;;;;4897539;28;20180;-75
2020/12/16 10:59:29;;;;;;;2.93;2.63;;;9.70;1.00;;;;;;4878237;28;20643;-76
2020/12/16 11:01:52;;;;;;;4.10;2.63;;;9.80;1.00;;;;;;4895040;28;20612;-78
2020/12/16 11:04:17;;;;;;;2.97;2.47;;;9.80;1.00;;;;;;4874989;28;20667;-76
2020/12/16 11:06:46;;;;;;;3.83;2.63;;;9.80;1.00;;;;;;4877592;28;20599;-75
2020/12/16 11:09:09;;;;;;;2.80;2.43;;;9.70;1.00;;;;;;4877243;28;20262;-77
2020/12/16 11:11:31;;;;;;;3.17;2.63;;;9.70;1.00;;;;;;4877658;28;20209;-78
2020/12/16 11:13:53;;;;;;;2.57;2.37;;;9.70;1.00;;;;;;4876877;28;20185;-77
2020/12/16 11:16:16;;;;;;;2.97;2.67;;;9.70;1.00;;;;;;4876865;28;20250;-75
2020/12/16 11:18:38;;;;;;;2.30;2.10;;;9.80;1.00;;;;;;4877526;28;20215;-76
2020/12/16 11:21:01;;;;;;;2.13;1.87;;;9.80;1.00;;;;;;4876476;28;20194;-82
2020/12/16 11:23:23;;;;;;;2.07;1.87;;;9.70;1.00;;;;;;4877561;28;20588;-76
2020/12/16 11:25:45;;;;;;;2.17;2.07;;;9.40;1.00;;;;;;4875873;28;20193;-76
2020/12/16 11:28:07;;;;;;;2.43;2.23;;;9.10;1.00;;;;;;4877483;28;20246;-75
2020/12/16 11:30:29;;;;;;;3.67;3.30;;;8.80;1.00;;;;;;4876640;28;20197;-75
2020/12/16 11:32:51;;;;;;;2.73;2.53;;;8.50;1.00;;;;;;4877229;28;20213;-74
2020/12/16 11:35:14;;;;;;;2.53;2.30;;;8.10;1.00;;;;;;4877037;28;20235;-76
2020/12/16 11:37:39;;;;;;;2.60;2.40;;;7.60;1.00;;;;;;4875806;28;20185;-76
2020/12/16 11:40:01;;;;;;;4.67;2.87;;;7.60;1.00;;;;;;4874586;28;20197;-76
2020/12/16 11:42:23;;;;;;;3.47;2.93;;;7.40;1.00;;;;;;4877169;28;20239;-75
2020/12/16 11:44:45;;;;;;;3.33;3.00;;;7.10;99.90;;;;;;4876621;28;20651;-76
2020/12/16 11:47:12;;;;;;;3.80;3.10;;;7.10;99.90;;;;;;4875374;28;20274;-75
2020/12/16 11:49:34;;;;;;;4.27;3.10;;;6.90;99.90;;;;;;4874775;28;20587;-75
2020/12/16 11:51:57;;;;;;;3.53;2.87;;;6.90;99.90;;;;;;4876997;28;20255;-75
2020/12/16 11:54:20;;;;;;;2.90;2.70;;;6.80;99.90;;;;;;4877065;28;20189;-75
2020/12/16 11:56:42;;;;;;;5.07;3.30;;;6.90;99.90;;;;;;4876473;28;20232;-75
2020/12/16 11:59:05;;;;;;;4.77;3.23;;;6.70;99.90;;;;;;4874565;28;20193;-75
2020/12/16 12:01:27;;;;;;;3.87;3.47;;;6.70;1.00;;;;;;4856453;28;20651;-77
2020/12/16 12:03:49;;;;;;;3.30;3.00;;;6.80;1.00;;;;;;4876285;28;20186;-75
2020/12/16 12:06:28;;;;;;;3.87;3.53;;;6.70;1.00;;;;;;4843544;28;20224;-75
2020/12/16 12:08:51;;;;;;;5.50;3.97;;;6.70;1.00;;;;;;4874217;28;20177;-75
2020/12/16 12:11:19;;;;;;;4.80;3.93;;;6.70;1.00;;;;;;4876189;28;20262;-75
2020/12/16 12:13:43;;;;;;;4.23;3.83;;;6.60;1.00;;;;;;4876127;28;20255;-75
2020/12/16 12:16:17;;;;;;;3.47;3.10;;;6.60;1.00;;;;;;4876610;28;20185;-76
2020/12/16 12:18:40;;;;;;;4.30;3.53;;;6.70;1.00;;;;;;4875179;28;20236;-74
2020/12/16 12:21:03;;;;;;;4.77;4.13;;;6.60;1.00;;;;;;4857225;28;20198;-74
2020/12/16 12:23:25;;;;;;;4.07;3.63;;;6.60;1.00;;;;;;4876402;28;20189;-75
2020/12/16 12:25:50;;;;;;;4.10;3.57;;;6.60;1.00;;;;;;4876282;28;21228;-76
2020/12/16 12:28:12;;;;;;;5.20;3.20;;;6.50;1.00;;;;;;4876223;28;20717;-75
2020/12/16 12:30:37;;;;;;;4.03;3.70;;;6.50;1.00;;;;;;4874121;28;20247;-75
2020/12/16 12:33:00;;;;;;;3.43;3.13;;;6.40;1.00;;;;;;4875906;28;20209;-75
2020/12/16 12:35:22;;;;;;;4.57;3.63;;;6.40;1.00;;;;;;4876148;28;20181;-74
2020/12/16 12:37:44;;;;;;;4.23;3.83;;;6.30;1.00;;;;;;4876049;28;20207;-74
2020/12/16 12:40:06;;;;;;;4.97;4.37;;;6.30;41.90;;;;;;4874815;28;20185;-75
2020/12/16 12:42:29;;;;;;;4.80;4.30;;;6.20;66.70;;;;;;4883192;28;20189;-75
2020/12/16 12:44:51;;;;;;;6.63;4.87;;;6.20;99.90;;;;;;4895642;28;20184;-75
2020/12/16 12:47:13;;;;;;;4.27;3.97;;;6.20;99.90;;;;;;4895214;28;20228;-75
2020/12/16 12:49:35;;;;;;;4.13;3.63;;;6.20;99.90;;;;;;4893384;28;20180;-75
2020/12/16 12:51:57;;;;;;;5.47;4.13;;;6.10;1.00;;;;;;4856978;28;20344;-82
2020/12/16 12:54:19;;;;;;;4.70;3.90;;;6.20;99.90;;;;;;4875931;28;20185;-75
2020/12/16 12:56:41;;;;;;;4.10;3.70;;;6.20;99.90;;;;;;4875765;28;20197;-74
2020/12/16 12:59:04;;;;;;;4.60;4.00;;;6.10;99.90;;;;;;4874956;28;20278;-77
2020/12/16 13:01:26;;;;;;;4.80;4.30;;;6.10;99.90;;;;;;4872364;28;20663;-74
2020/12/16 13:03:50;;;;;;;5.30;4.17;;;6.10;99.90;;;;;;4873913;28;20607;-76
2020/12/16 13:06:15;;;;;;;4.50;3.87;;;6.00;99.90;;;;;;4875856;28;20189;-77
2020/12/16 13:08:37;;;;;;;5.37;4.40;;;6.00;99.90;;;;;;4875625;28;20227;-76